Terminal Aerodrome Forecast
Issued by NWS

Home | Current Version | Previous Version | Text Only | Print | Product List | Glossary On
Versions: 1 2 3 4 5 6 7 8 9 10 11 12 13 14
000
FTUS44 KCRP 252300
TAFLRD
TAF
KLRD 252326Z 2600/2624 01009KT P6SM VCSH SCT035 SCT090
     FM260200 14015G20KT P6SM FEW030
     FM261800 16016G25KT P6SM SCT050=

USA.gov is the U.S. government's official web portal to all federal, state and local government web resources and services.